富山空港の過去48時間の天気

富山空港 (Toyama)

現在時刻: 10/23 15:32 JST (10/23 06:32 UTC) 以下の時間は現地時間です。

過去48時間のMETAR気象情報
時間 風向 風速(m/s) 視程 気温(℃) 湿度(%) 気圧(hPa) 天気現象
23 15:00 北北東 4 10km以上 21 64 1017
23 14:00 4 10km以上 22 60 1016
23 13:00 北北西 3 10km以上 23 57 1016
23 12:00 4 10km以上 21 64 1017
23 11:00 3 10km以上 21 60 1017
23 10:00 不定 1 10km以上 20 68 1017
23 09:00 不定 1 10km以上 19 78 1017
23 08:00 不定 1 10km以上 18 83 1017
23 07:00 不定 1 10km以上 15 88 1016
23 06:10 不定 1 10km以上 14 94 1016
22 06:10 3 10km以上 15 94 1012 弱いしゅう雨
21 21:00 不定 1 10km以上 16 94 1015
21 20:00 2 10km以上 16 94 1015
21 19:00 2 10km以上 16 94 1016
21 18:00 南西 2 10km以上 17 88 1016
21 17:00 2 10km以上 18 83 1016
21 16:00 不定 1 10km以上 18 77 1016
RJNT 230600Z 02007KT 350V080 9999 FEW025 BKN/// 21/14 Q1017
RJNT 230500Z 01008KT 9999 FEW030 BKN/// 22/14 Q1016
RJNT 230400Z 34006KT 9999 FEW030 SCT040 23/14 Q1016
RJNT 230300Z 35007KT 330V030 9999 FEW030 SCT040 21/14 Q1017
RJNT 230200Z 35005KT 280V030 9999 FEW030 SCT040 21/13 Q1017
RJNT 230100Z VRB02KT 9999 FEW030 20/14 Q1017
RJNT 230000Z VRB01KT 9999 FEW010 19/15 Q1017
RJNT 222300Z VRB01KT 9999 FEW010 18/15 Q1017
RJNT 222200Z VRB02KT 9999 FEW020 15/13 Q1016
RJNT 222110Z VRB01KT 9999 FEW010 SCT/// 14/13 Q1016 RMK 1CU010 A3002
RJNT 212110Z 18005KT 9999 -SHRA FEW005 SCT030 BKN110 15/14 Q1012 RMK 1ST005 3SC030 7AC110 A2989
RJNT 211200Z VRB01KT CAVOK 16/15 Q1015
RJNT 211100Z 18003KT CAVOK 16/15 Q1015
RJNT 211000Z 18003KT CAVOK 16/15 Q1016
RJNT 210900Z 23003KT CAVOK 17/15 Q1016
RJNT 210800Z 17003KT 9999 FEW010 SCT170 OVC190 18/15 Q1016
RJNT 210700Z VRB02KT 9999 FEW010 OVC200 18/14 Q1016